Jonestown, Texas
Current Conditions -  °F | °C
As of 6:15 AM on Saturday 25 Oct 2014 (Local Time) from KRYW Reporting Station
Clear Clear  
Wind Chill: 20°   Ceiling: Unl
Heat Index: 20°   Visibility: 10mi
Dew Point: 14°   Wind: 6mph
Humidity: 70%   Direction: 240°WSW
Pressure: 30.15"   Gusts: NA
Location:  30.4521°N, 97.9683°W
Report Text: KRYW 251115Z AUTO 24005KT 10SM CLR 20/14 A3015 RMK AO2 T01950140
Loading
Personal Weather Stations






























Interactive Weather Map
Tropical Storm Tracking
New forecast layout! Learn more

10-Day Weather Forecast

Advertisements
Track Severe Weather on mobile